Time;durP1;ratioP1;P1;durP2;ratioP2;P2;SDS_P1;SDS_P2;PMS_P1;PMS_P2;Temp;Humidity;BMP_temperature;BMP_pressure;BME280_temperature;BME280_humidity;BME280_pressure;Samples;Min_cycle;Max_cycle;Signal;HPM_P1;HPM_P2
2023/08/25 00:02:12;;;;;;;8.35;2.67;;;33.30;29.90;;;;;;7710716;23;20008;-75
2023/08/25 00:05:13;;;;;;;4.68;3.13;;;33.30;29.90;;;;;;7682526;23;20341;-75
2023/08/25 00:08:14;;;;;;;16.85;3.50;;;33.20;30.00;;;;;;7682319;23;20416;-75
2023/08/25 00:11:15;;;;;;;8.13;3.20;;;33.20;30.40;;;;;;7709812;23;20015;-77
2023/08/25 00:14:16;;;;;;;5.90;3.60;;;33.10;30.50;;;;;;7708868;23;20083;-75
2023/08/25 00:17:17;;;;;;;9.43;3.38;;;33.00;30.60;;;;;;7682665;23;20430;-75
2023/08/25 00:20:18;;;;;;;7.82;3.53;;;33.00;30.90;;;;;;7709450;23;20075;-74
2023/08/25 00:23:19;;;;;;;9.32;3.65;;;32.90;30.80;;;;;;7708593;23;20059;-75
2023/08/25 00:26:20;;;;;;;7.57;3.45;;;32.90;31.00;;;;;;7709052;23;20032;-76
2023/08/25 00:29:21;;;;;;;4.47;3.35;;;32.80;31.10;;;;;;7683109;23;20008;-76
2023/08/25 00:32:22;;;;;;;5.60;3.03;;;32.80;31.10;;;;;;7657007;23;20008;-76
2023/08/25 00:35:23;;;;;;;5.53;3.17;;;32.80;31.10;;;;;;7657295;23;20461;-76
2023/08/25 00:38:28;;;;;;;7.40;3.20;;;32.70;31.00;;;;;;7709280;23;20102;-75
2023/08/25 00:41:29;;;;;;;7.15;3.17;;;32.70;31.10;;;;;;7657517;23;20031;-75
2023/08/25 00:44:29;;;;;;;9.43;3.08;;;32.70;31.00;;;;;;7681769;23;20027;-76
2023/08/25 00:47:31;;;;;;;4.30;3.33;;;32.70;31.30;;;;;;7682029;23;20017;-76
2023/08/25 00:50:33;;;;;;;6.35;3.28;;;32.60;31.30;;;;;;7709176;23;20015;-75
2023/08/25 00:53:34;;;;;;;3.95;3.00;;;32.60;31.30;;;;;;7685806;23;20009;-74
2023/08/25 00:56:35;;;;;;;9.48;3.22;;;32.60;31.30;;;;;;7690442;23;20009;-76
2023/08/25 00:59:37;;;;;;;4.10;2.95;;;32.60;31.30;;;;;;7725766;23;20132;-75
2023/08/25 01:02:38;;;;;;;5.03;3.08;;;32.60;31.20;;;;;;7699270;23;20092;-76
2023/08/25 01:05:39;;;;;;;7.78;3.70;;;32.60;31.20;;;;;;7684324;23;20016;-75
2023/08/25 01:08:40;;;;;;;7.07;3.65;;;32.60;31.40;;;;;;7682977;23;20453;-76
2023/08/25 01:11:59;;;;;;;4.60;3.30;;;32.60;31.40;;;;;;7681531;23;20092;-76
2023/08/25 01:15:10;;;;;;;4.45;3.28;;;32.60;31.40;;;;;;7682020;23;20720;-76
2023/08/25 01:18:33;;;;;;;4.95;2.70;;;32.60;31.60;;;;;;7708961;23;20480;-76
2023/08/25 01:21:36;;;;;;;6.60;3.33;;;32.60;31.60;;;;;;7682235;23;20402;-76
2023/08/25 01:24:40;;;;;;;4.10;3.50;;;32.60;31.60;;;;;;7656831;23;20005;-76
2023/08/25 01:27:43;;;;;;;5.35;3.22;;;32.60;31.60;;;;;;7656427;23;20063;-76
2023/08/25 01:30:44;;;;;;;9.88;3.38;;;32.50;31.60;;;;;;7656779;23;20095;-76
2023/08/25 01:33:47;;;;;;;9.10;3.90;;;32.50;31.60;;;;;;7708766;23;20004;-75
2023/08/25 01:37:22;;;;;;;4.10;2.95;;;32.40;31.60;;;;;;7656925;23;20015;-77
2023/08/25 01:40:38;;;;;;;4.80;3.38;;;32.40;31.70;;;;;;7681392;23;20008;-75
2023/08/25 01:43:46;;;;;;;5.63;3.50;;;32.40;31.90;;;;;;7657032;23;20059;-76
2023/08/25 01:47:03;;;;;;;6.73;3.20;;;32.40;31.90;;;;;;7681126;23;20040;-76
2023/08/25 01:50:08;;;;;;;8.82;3.33;;;32.40;32.00;;;;;;7656744;23;20028;-76
2023/08/25 01:53:11;;;;;;;10.65;3.50;;;32.30;32.10;;;;;;7681826;23;20012;-75
2023/08/25 01:56:12;;;;;;;6.47;3.63;;;32.30;32.30;;;;;;7681608;23;20012;-75
2023/08/25 01:59:13;;;;;;;4.95;3.35;;;32.20;32.40;;;;;;7680993;23;20012;-77
2023/08/25 02:02:14;;;;;;;7.03;3.78;;;32.20;32.50;;;;;;7680778;23;20457;-74
2023/08/25 02:05:15;;;;;;;4.85;3.17;;;32.10;32.70;;;;;;7681355;23;20087;-78
2023/08/25 02:08:16;;;;;;;3.90;3.20;;;32.10;32.80;;;;;;7681563;23;20005;-78
2023/08/25 02:11:17;;;;;;;7.50;3.65;;;32.00;32.70;;;;;;7681168;23;20058;-75
2023/08/25 02:14:19;;;;;;;7.45;3.70;;;32.00;33.00;;;;;;7680988;23;20019;-75
2023/08/25 02:17:20;;;;;;;5.30;3.55;;;32.00;33.30;;;;;;7708506;23;20107;-77
2023/08/25 02:20:21;;;;;;;8.75;3.58;;;31.90;33.40;;;;;;7681292;23;20063;-76
2023/08/25 02:23:23;;;;;;;6.88;3.50;;;31.80;33.50;;;;;;7680699;23;20083;-76
2023/08/25 02:26:24;;;;;;;6.63;3.65;;;31.80;33.60;;;;;;7707941;23;20358;-74
2023/08/25 02:29:25;;;;;;;5.72;3.58;;;31.70;33.60;;;;;;7655905;23;20024;-75
2023/08/25 02:32:28;;;;;;;6.72;3.88;;;31.70;33.80;;;;;;7680967;23;20136;-77
2023/08/25 02:35:29;;;;;;;6.38;3.35;;;31.70;33.80;;;;;;7656411;23;20012;-75
2023/08/25 02:38:31;;;;;;;9.90;3.60;;;31.70;33.80;;;;;;7681129;23;20102;-77
2023/08/25 02:41:32;;;;;;;9.30;3.70;;;31.70;33.90;;;;;;7655613;23;20013;-76
2023/08/25 02:44:33;;;;;;;5.95;3.80;;;31.60;34.00;;;;;;7707457;23;20015;-74
2023/08/25 02:47:34;;;;;;;7.15;3.70;;;31.60;34.10;;;;;;7706886;23;20543;-75
2023/08/25 02:50:35;;;;;;;5.88;3.50;;;31.60;34.30;;;;;;7707506;23;20004;-76
2023/08/25 02:53:36;;;;;;;7.18;3.78;;;31.60;34.50;;;;;;7707549;23;20004;-76
2023/08/25 02:56:37;;;;;;;9.57;4.10;;;31.50;34.50;;;;;;7682479;23;20020;-77
2023/08/25 02:59:40;;;;;;;6.13;3.78;;;31.50;34.70;;;;;;7710968;23;20107;-75
2023/08/25 03:02:43;;;;;;;7.30;3.97;;;31.40;34.70;;;;;;7659484;23;20008;-75
2023/08/25 03:05:45;;;;;;;7.20;4.30;;;31.40;34.90;;;;;;7710427;23;20433;-77
2023/08/25 03:08:46;;;;;;;9.43;4.65;;;31.40;35.10;;;;;;7683425;23;20014;-77
2023/08/25 03:11:48;;;;;;;10.10;4.55;;;31.30;35.20;;;;;;7683601;23;20009;-75
2023/08/25 03:14:49;;;;;;;6.40;4.10;;;31.30;35.40;;;;;;7683862;23;20015;-76
2023/08/25 03:17:50;;;;;;;5.40;3.65;;;31.20;35.40;;;;;;7682898;23;20293;-76
2023/08/25 03:20:52;;;;;;;9.20;3.85;;;31.20;35.50;;;;;;7659137;23;20012;-76
2023/08/25 03:23:55;;;;;;;14.27;4.10;;;31.20;35.50;;;;;;7683036;23;20008;-76
2023/08/25 03:26:59;;;;;;;8.95;4.00;;;31.20;35.60;;;;;;7683058;23;20012;-75
2023/08/25 03:30:01;;;;;;;6.68;3.47;;;31.10;35.70;;;;;;7683378;23;20390;-75
2023/08/25 03:33:04;;;;;;;5.18;3.75;;;31.10;35.80;;;;;;7682945;23;20448;-74
2023/08/25 03:36:06;;;;;;;8.73;4.22;;;31.00;35.80;;;;;;7682904;23;20013;-75
2023/08/25 03:39:07;;;;;;;13.35;3.88;;;31.00;35.90;;;;;;7683066;23;20044;-75
2023/08/25 03:42:09;;;;;;;8.05;3.78;;;31.00;36.00;;;;;;7658167;23;20468;-75
2023/08/25 03:45:10;;;;;;;12.05;4.20;;;30.90;35.90;;;;;;7682871;23;20413;-76
2023/08/25 03:48:11;;;;;;;4.95;3.75;;;30.90;36.00;;;;;;7710388;23;20063;-76
2023/08/25 03:51:13;;;;;;;10.00;4.20;;;30.90;36.10;;;;;;7682208;23;20008;-76
2023/08/25 03:54:13;;;;;;;8.85;3.63;;;30.90;36.10;;;;;;7682671;23;20592;-76
2023/08/25 03:57:15;;;;;;;7.18;4.60;;;30.80;36.30;;;;;;7682531;23;20015;-76
2023/08/25 04:00:17;;;;;;;6.07;3.80;;;30.80;36.40;;;;;;7683498;23;20342;-77
2023/08/25 04:03:18;;;;;;;9.20;4.03;;;30.80;36.30;;;;;;7709032;23;20023;-77
2023/08/25 04:06:19;;;;;;;5.40;4.03;;;30.80;36.10;;;;;;7710072;23;20005;-76
2023/08/25 04:09:20;;;;;;;10.77;4.05;;;30.80;36.10;;;;;;7666809;23;20028;-77
2023/08/25 04:12:22;;;;;;;6.53;3.47;;;30.80;36.10;;;;;;7694889;23;19993;-76
2023/08/25 04:15:24;;;;;;;7.15;3.38;;;30.80;36.10;;;;;;7704923;23;20021;-76
2023/08/25 04:18:25;;;;;;;5.43;3.35;;;30.70;36.20;;;;;;7690030;23;20015;-75
2023/08/25 04:21:26;;;;;;;5.80;3.80;;;30.60;36.30;;;;;;7685346;23;20314;-76
2023/08/25 04:24:27;;;;;;;7.57;3.67;;;30.60;36.60;;;;;;7681859;23;20012;-75
2023/08/25 04:27:28;;;;;;;10.38;3.75;;;30.40;36.80;;;;;;7682715;23;20020;-75
2023/08/25 04:30:30;;;;;;;9.23;3.42;;;30.30;37.10;;;;;;7657585;23;20009;-75
2023/08/25 04:33:34;;;;;;;7.40;3.45;;;30.20;37.20;;;;;;7682184;23;20008;-73
2023/08/25 04:36:36;;;;;;;7.28;4.05;;;30.10;37.40;;;;;;7682571;23;20349;-76
2023/08/25 04:39:37;;;;;;;7.85;3.35;;;29.90;37.50;;;;;;7682599;23;20012;-75
2023/08/25 04:42:38;;;;;;;14.30;3.90;;;29.90;37.80;;;;;;7682045;23;20074;-74
2023/08/25 04:45:39;;;;;;;9.30;3.60;;;29.80;38.00;;;;;;7682331;23;20017;-75
2023/08/25 04:48:45;;;;;;;7.90;3.08;;;29.70;38.10;;;;;;7682366;23;20012;-75
2023/08/25 04:51:47;;;;;;;6.05;3.50;;;29.70;38.20;;;;;;7657449;23;20057;-75
2023/08/25 04:54:48;;;;;;;9.05;3.10;;;29.60;38.40;;;;;;7683178;23;20442;-76
2023/08/25 04:57:49;;;;;;;8.10;2.75;;;29.60;38.50;;;;;;7682867;23;20008;-75
2023/08/25 05:00:51;;;;;;;7.70;2.60;;;29.50;38.90;;;;;;7682759;23;20023;-75
2023/08/25 05:03:55;;;;;;;11.25;2.97;;;29.50;39.10;;;;;;7657791;23;20411;-76
2023/08/25 05:06:57;;;;;;;7.30;3.42;;;29.50;39.30;;;;;;7657938;23;20023;-75
2023/08/25 05:09:59;;;;;;;4.13;2.83;;;29.40;39.60;;;;;;7682569;23;20410;-75
2023/08/25 05:13:01;;;;;;;7.07;2.80;;;29.30;40.30;;;;;;7682171;23;20008;-75
2023/08/25 05:16:03;;;;;;;5.63;2.95;;;29.30;39.70;;;;;;7681784;23;20013;-75
2023/08/25 05:19:24;;;;;;;7.15;2.97;;;29.30;40.00;;;;;;7681791;23;20146;-75
2023/08/25 05:22:27;;;;;;;10.55;3.45;;;29.20;40.20;;;;;;7681567;23;20472;-75
2023/08/25 05:25:28;;;;;;;6.57;3.03;;;29.20;40.70;;;;;;7657628;23;20096;-76
2023/08/25 05:28:29;;;;;;;8.48;3.47;;;29.10;40.90;;;;;;7682173;23;20314;-75
2023/08/25 05:31:31;;;;;;;4.65;3.42;;;29.10;41.00;;;;;;7680919;23;20014;-74
2023/08/25 05:34:52;;;;;;;6.78;3.20;;;29.00;41.10;;;;;;7707243;23;20398;-76
2023/08/25 05:37:53;;;;;;;10.90;3.00;;;29.00;41.40;;;;;;7681213;23;20012;-76
2023/08/25 05:40:55;;;;;;;9.15;3.15;;;28.90;41.50;;;;;;7681512;23;20101;-75
2023/08/25 05:43:56;;;;;;;6.68;2.90;;;28.90;41.80;;;;;;7681116;23;20008;-75
2023/08/25 05:46:57;;;;;;;6.43;3.20;;;28.90;42.10;;;;;;7680997;23;20020;-76
2023/08/25 05:49:58;;;;;;;6.35;3.00;;;28.80;42.20;;;;;;7680730;23;20019;-75
2023/08/25 05:52:59;;;;;;;7.38;3.70;;;28.80;42.50;;;;;;7681328;23;20389;-75
2023/08/25 05:56:00;;;;;;;5.93;3.30;;;28.90;42.40;;;;;;7680769;23;20347;-76
2023/08/25 05:59:01;;;;;;;8.18;3.40;;;28.90;42.60;;;;;;7680854;23;20150;-75
2023/08/25 06:02:02;;;;;;;6.32;2.75;;;29.00;42.50;;;;;;7707560;23;20065;-76
2023/08/25 06:05:03;;;;;;;4.53;2.88;;;29.00;42.40;;;;;;7707235;23;20005;-76
2023/08/25 06:08:05;;;;;;;7.38;3.00;;;29.10;42.50;;;;;;7680640;23;20008;-77
2023/08/25 06:11:07;;;;;;;6.93;2.90;;;29.20;42.50;;;;;;7707563;23;20453;-75
2023/08/25 06:14:08;;;;;;;16.35;3.63;;;29.20;42.70;;;;;;7707125;23;20073;-76
2023/08/25 06:17:10;;;;;;;5.38;3.05;;;29.20;42.60;;;;;;7707474;23;20034;-76
2023/08/25 06:20:12;;;;;;;16.38;3.65;;;28.90;42.30;;;;;;7680835;23;20303;-76
2023/08/25 06:23:14;;;;;;;9.27;3.95;;;29.30;42.50;;;;;;7707292;23;20005;-75
2023/08/25 06:26:15;;;;;;;13.98;4.63;;;29.40;42.50;;;;;;7656007;23;20020;-76
2023/08/25 06:29:16;;;;;;;10.52;3.15;;;29.30;42.50;;;;;;7680697;23;20056;-75
2023/08/25 06:32:17;;;;;;;8.88;3.72;;;29.40;42.40;;;;;;7680812;23;20008;-76
2023/08/25 06:35:18;;;;;;;6.85;3.30;;;29.30;42.50;;;;;;7683993;23;20008;-77
2023/08/25 06:38:19;;;;;;;19.48;3.80;;;29.30;42.70;;;;;;7709336;23;20039;-76
2023/08/25 06:41:20;;;;;;;12.35;3.15;;;29.30;42.90;;;;;;7707717;23;20004;-75
2023/08/25 06:44:20;;;;;;;7.90;3.05;;;29.30;43.00;;;;;;7707169;23;20084;-77
2023/08/25 06:47:22;;;;;;;9.35;3.65;;;29.40;43.10;;;;;;7679722;23;20416;-76
2023/08/25 06:50:23;;;;;;;13.18;3.83;;;29.50;42.90;;;;;;7681036;23;20568;-76
2023/08/25 06:53:24;;;;;;;7.07;3.33;;;29.60;43.00;;;;;;7707337;23;20295;-76
2023/08/25 06:56:25;;;;;;;5.35;3.15;;;29.60;43.10;;;;;;7707655;23;20023;-76
2023/08/25 06:59:26;;;;;;;4.65;3.22;;;29.70;43.30;;;;;;7709143;23;20005;-77
2023/08/25 07:02:27;;;;;;;6.95;3.17;;;29.70;43.30;;;;;;7680491;23;20434;-76
2023/08/25 07:05:28;;;;;;;6.85;4.00;;;29.70;42.90;;;;;;7706767;23;20004;-76
2023/08/25 07:08:29;;;;;;;10.73;3.78;;;29.80;42.60;;;;;;7707309;23;20071;-77
2023/08/25 07:11:30;;;;;;;8.38;2.83;;;29.90;42.40;;;;;;7707170;23;20369;-75
2023/08/25 07:14:31;;;;;;;13.95;3.83;;;30.00;41.90;;;;;;7682001;23;20005;-78
2023/08/25 07:17:33;;;;;;;10.48;3.72;;;30.20;41.60;;;;;;7682106;23;20001;-76
2023/08/25 07:20:34;;;;;;;10.93;3.72;;;30.20;42.00;;;;;;7708162;23;20031;-76
2023/08/25 07:23:35;;;;;;;12.10;3.47;;;30.20;42.20;;;;;;7708914;23;20095;-76
2023/08/25 07:26:36;;;;;;;7.07;3.80;;;30.30;42.30;;;;;;7711654;23;20013;-77
2023/08/25 07:29:37;;;;;;;6.45;3.22;;;30.20;42.10;;;;;;7662438;23;20030;-77
2023/08/25 07:32:38;;;;;;;9.02;3.55;;;30.10;42.00;;;;;;7713613;23;20068;-76
2023/08/25 07:35:41;;;;;;;7.68;3.83;;;30.10;41.90;;;;;;7682384;23;20012;-78
2023/08/25 07:38:42;;;;;;;9.52;4.05;;;30.10;41.60;;;;;;7707885;23;20080;-76
2023/08/25 07:41:42;;;;;;;8.07;4.25;;;30.10;41.50;;;;;;7680442;23;20410;-77
2023/08/25 07:44:44;;;;;;;23.63;5.47;;;30.20;41.50;;;;;;7682845;23;20079;-75
2023/08/25 07:47:45;;;;;;;9.32;3.60;;;30.30;41.70;;;;;;7681516;23;20012;-76
2023/08/25 07:50:46;;;;;;;5.50;3.63;;;30.10;41.30;;;;;;7657218;23;20123;-77
2023/08/25 07:53:48;;;;;;;12.18;3.63;;;30.40;41.40;;;;;;7708630;23;20096;-76
2023/08/25 07:56:49;;;;;;;8.75;3.58;;;30.40;41.40;;;;;;7709160;23;20020;-77
2023/08/25 07:59:50;;;;;;;8.57;3.22;;;30.40;41.30;;;;;;7709969;23;20008;-75
2023/08/25 08:02:51;;;;;;;7.93;3.35;;;30.30;41.70;;;;;;7709711;23;20009;-76
2023/08/25 08:05:52;;;;;;;16.48;3.65;;;30.30;42.30;;;;;;7682716;23;20035;-77
2023/08/25 08:08:52;;;;;;;7.60;3.55;;;30.30;42.50;;;;;;7709424;23;20027;-76
2023/08/25 08:11:53;;;;;;;10.73;3.63;;;30.40;42.70;;;;;;7682109;23;20001;-77
2023/08/25 08:14:54;;;;;;;8.93;3.75;;;30.40;42.10;;;;;;7657115;23;20012;-76
2023/08/25 08:17:55;;;;;;;6.25;3.80;;;30.40;41.60;;;;;;7708797;23;20005;-76
2023/08/25 08:20:56;;;;;;;7.40;4.20;;;30.50;41.40;;;;;;7709161;23;20012;-76
2023/08/25 08:23:57;;;;;;;18.58;4.35;;;30.60;41.60;;;;;;7681181;23;20062;-77
2023/08/25 08:26:59;;;;;;;8.18;4.60;;;30.70;41.60;;;;;;7708726;23;20009;-77
2023/08/25 08:30:00;;;;;;;15.25;5.00;;;30.70;41.70;;;;;;7708607;23;20024;-75
2023/08/25 08:33:01;;;;;;;9.02;4.88;;;30.90;41.80;;;;;;7708388;23;20107;-77
2023/08/25 08:36:03;;;;;;;7.78;4.80;;;31.00;42.10;;;;;;7680883;23;20386;-75
2023/08/25 08:39:04;;;;;;;17.17;4.72;;;31.10;42.30;;;;;;7681604;23;20004;-76
2023/08/25 08:42:12;;;;;;;17.42;5.47;;;31.10;42.70;;;;;;7708274;23;20005;-76
2023/08/25 08:45:15;;;;;;;;;;;31.10;43.30;;;;;;7708958;23;20062;-76
2023/08/25 08:48:16;;;;;;;19.98;5.32;;;31.00;43.60;;;;;;7708624;23;20048;-78
2023/08/25 08:51:18;;;;;;;12.68;4.93;;;31.00;43.60;;;;;;7682359;23;20016;-77
2023/08/25 08:54:19;;;;;;;14.60;4.65;;;30.90;43.40;;;;;;7682136;23;20032;-76
2023/08/25 08:57:20;;;;;;;6.20;4.43;;;30.90;42.70;;;;;;7708184;23;20008;-76
2023/08/25 09:00:22;;;;;;;7.07;3.90;;;31.00;41.70;;;;;;7681970;23;20024;-76
2023/08/25 09:03:28;;;;;;;7.55;3.08;;;31.00;40.70;;;;;;7681217;23;20367;-75
2023/08/25 09:06:35;;;;;;;5.63;3.53;;;31.20;40.30;;;;;;7681615;23;20040;-76
2023/08/25 09:09:36;;;;;;;12.35;3.63;;;31.30;40.20;;;;;;7708170;23;20106;-75
2023/08/25 09:12:37;;;;;;;5.95;3.40;;;31.30;40.20;;;;;;7707971;23;20083;-75
2023/08/25 09:15:38;;;;;;;6.25;3.78;;;31.40;40.20;;;;;;7681214;23;20016;-77
2023/08/25 09:18:39;;;;;;;6.20;3.15;;;31.50;40.00;;;;;;7709457;23;20051;-76
2023/08/25 09:21:48;;;;;;;6.72;3.83;;;31.60;39.70;;;;;;7709169;23;20020;-76
2023/08/25 09:24:49;;;;;;;7.38;4.40;;;31.70;39.60;;;;;;7682242;23;20477;-76
2023/08/25 09:27:59;;;;;;;9.70;4.20;;;31.70;39.80;;;;;;7708665;23;20032;-75
2023/08/25 09:30:59;;;;;;;6.50;3.95;;;31.60;39.90;;;;;;7683005;23;20007;-75
2023/08/25 09:34:09;;;;;;;13.27;4.85;;;31.60;40.30;;;;;;7709457;23;20001;-75
2023/08/25 09:37:10;;;;;;;8.32;4.40;;;31.60;40.80;;;;;;7681890;23;20437;-76
2023/08/25 09:40:20;;;;;;;10.18;4.38;;;31.70;41.20;;;;;;7708767;23;20087;-76
2023/08/25 09:43:33;;;;;;;5.32;3.70;;;31.60;41.30;;;;;;7656352;23;20416;-77
2023/08/25 09:46:34;;;;;;;6.07;3.88;;;31.80;41.40;;;;;;7681028;23;20005;-77
2023/08/25 09:49:40;;;;;;;7.30;3.58;;;32.00;41.00;;;;;;7681085;23;20004;-76
2023/08/25 09:52:44;;;;;;;8.57;3.78;;;32.20;40.60;;;;;;7708694;23;20096;-76
2023/08/25 09:55:46;;;;;;;10.13;3.38;;;32.40;40.20;;;;;;7708364;23;20350;-75
2023/08/25 09:58:48;;;;;;;17.27;3.40;;;32.60;39.70;;;;;;7708581;23;20326;-76
2023/08/25 10:01:50;;;;;;;7.40;3.47;;;32.60;39.30;;;;;;7708200;23;20450;-75
2023/08/25 10:04:53;;;;;;;6.85;4.22;;;32.70;39.00;;;;;;7680815;23;20042;-75
2023/08/25 10:07:55;;;;;;;6.13;3.05;;;32.80;38.30;;;;;;7707252;23;20005;-77
2023/08/25 10:10:57;;;;;;;7.70;3.05;;;32.90;38.00;;;;;;7656175;23;20040;-76
2023/08/25 10:14:02;;;;;;;10.15;3.17;;;32.90;37.40;;;;;;7707952;23;20665;-76
2023/08/25 10:17:04;;;;;;;6.00;3.30;;;33.00;37.00;;;;;;7680996;23;20020;-76
2023/08/25 10:20:08;;;;;;;4.72;2.95;;;33.10;36.60;;;;;;7656288;23;20072;-76
2023/08/25 10:23:10;;;;;;;5.85;2.97;;;33.10;36.30;;;;;;7655624;23;20050;-75
2023/08/25 10:26:11;;;;;;;6.63;3.00;;;33.20;36.00;;;;;;7708207;23;20012;-75
2023/08/25 10:29:16;;;;;;;7.63;3.00;;;33.30;35.50;;;;;;7680639;23;20704;-75
2023/08/25 10:32:18;;;;;;;8.38;3.20;;;33.30;35.20;;;;;;7681486;23;20378;-75
2023/08/25 10:35:44;;;;;;;6.53;3.05;;;33.40;35.10;;;;;;7708863;23;20012;-75
2023/08/25 10:38:46;;;;;;;4.70;2.85;;;33.60;34.70;;;;;;7657918;23;20008;-74
2023/08/25 10:41:56;;;;;;;8.60;2.90;;;33.80;34.00;;;;;;7683171;23;20526;-74
2023/08/25 10:45:09;;;;;;;5.90;3.35;;;34.00;33.50;;;;;;7710173;23;20345;-74
2023/08/25 10:48:10;;;;;;;4.40;2.78;;;34.20;32.90;;;;;;7710145;23;20016;-74
2023/08/25 10:51:16;;;;;;;5.40;2.95;;;34.50;32.20;;;;;;7709806;23;20124;-76
2023/08/25 10:54:18;;;;;;;11.25;3.30;;;34.90;31.20;;;;;;7655814;23;20008;-76
2023/08/25 10:57:29;;;;;;;7.25;2.97;;;35.30;30.30;;;;;;7708243;23;20337;-75
2023/08/25 11:00:43;;;;;;;4.38;2.95;;;35.60;29.90;;;;;;7681155;23;20047;-75
2023/08/25 11:04:01;;;;;;;7.85;4.57;;;35.80;29.50;;;;;;7708795;23;20009;-74
2023/08/25 11:07:02;;;;;;;12.43;4.97;;;35.90;29.80;;;;;;7681068;23;20055;-76
2023/08/25 11:10:12;;;;;;;9.35;3.92;;;36.00;29.30;;;;;;7707326;23;20027;-75
2023/08/25 11:13:15;;;;;;;5.22;3.70;;;36.00;29.00;;;;;;7680421;23;20073;-76
2023/08/25 11:16:16;;;;;;;6.78;3.88;;;36.00;29.00;;;;;;7708366;23;20001;-76
2023/08/25 11:19:17;;;;;;;6.70;4.00;;;36.00;29.10;;;;;;7710469;23;20036;-77
2023/08/25 11:22:20;;;;;;;7.13;3.83;;;35.90;29.10;;;;;;7711270;23;20307;-75
2023/08/25 11:25:22;;;;;;;14.25;3.55;;;35.80;29.30;;;;;;7659592;23;20092;-78
2023/08/25 11:28:26;;;;;;;4.88;3.70;;;35.70;29.60;;;;;;7711379;23;20001;-78
2023/08/25 11:31:28;;;;;;;6.95;4.03;;;35.90;29.70;;;;;;7683734;23;20016;-77
2023/08/25 11:34:30;;;;;;;8.75;3.95;;;36.20;29.60;;;;;;7684438;23;20359;-79
2023/08/25 11:37:32;;;;;;;7.05;3.53;;;36.40;29.40;;;;;;7711180;23;20107;-75
2023/08/25 11:40:33;;;;;;;4.15;3.35;;;36.90;29.10;;;;;;7684138;23;20013;-78
2023/08/25 11:43:36;;;;;;;6.82;3.60;;;37.50;28.40;;;;;;7684525;23;20058;-76
2023/08/25 11:46:37;;;;;;;7.57;3.58;;;38.10;27.80;;;;;;7711108;23;20012;-77
2023/08/25 11:49:39;;;;;;;4.50;3.65;;;38.50;27.30;;;;;;7683908;23;20020;-76
2023/08/25 11:52:40;;;;;;;8.32;3.47;;;38.80;27.00;;;;;;7684819;23;20023;-77
2023/08/25 11:55:42;;;;;;;6.35;3.50;;;39.10;26.80;;;;;;7710615;23;20095;-77
2023/08/25 11:58:47;;;;;;;10.73;3.35;;;39.50;27.00;;;;;;7710570;23;20063;-77
2023/08/25 12:01:58;;;;;;;8.55;3.33;;;39.70;25.90;;;;;;7682723;23;20013;-76
2023/08/25 12:05:03;;;;;;;7.00;3.72;;;40.00;25.40;;;;;;7683289;23;20023;-77
2023/08/25 12:08:05;;;;;;;12.07;3.55;;;40.30;25.20;;;;;;7682840;23;20828;-76
2023/08/25 12:11:08;;;;;;;5.85;3.20;;;40.80;24.60;;;;;;7709775;23;20008;-77
2023/08/25 12:14:23;;;;;;;6.75;3.50;;;41.20;23.80;;;;;;7709516;23;20094;-78
2023/08/25 12:17:29;;;;;;;8.48;3.35;;;41.50;23.40;;;;;;7710053;23;20055;-79
2023/08/25 12:20:30;;;;;;;4.78;3.03;;;41.80;22.90;;;;;;7709776;23;20005;-77
2023/08/25 12:23:43;;;;;;;5.57;3.13;;;42.20;22.60;;;;;;7681379;23;20313;-78
2023/08/25 12:26:44;;;;;;;6.57;4.03;;;42.50;22.20;;;;;;7681645;23;20012;-77
2023/08/25 12:29:45;;;;;;;6.28;4.35;;;42.90;21.80;;;;;;7657115;23;20011;-78
2023/08/25 12:32:46;;;;;;;5.55;3.92;;;43.40;21.40;;;;;;7708574;23;20362;-79
2023/08/25 12:35:48;;;;;;;4.82;3.63;;;43.80;20.80;;;;;;7708468;23;20050;-76
2023/08/25 12:38:49;;;;;;;8.23;2.88;;;44.40;20.50;;;;;;7709496;23;20305;-77
2023/08/25 12:41:51;;;;;;;4.85;3.47;;;44.80;20.00;;;;;;7708894;23;20012;-77
2023/08/25 12:44:53;;;;;;;5.00;3.50;;;45.30;19.60;;;;;;7708676;23;20016;-77
2023/08/25 12:47:54;;;;;;;7.97;3.78;;;45.80;19.10;;;;;;7683347;23;20317;-75
2023/08/25 12:50:55;;;;;;;7.47;4.05;;;45.90;18.90;;;;;;7709712;23;20012;-77
2023/08/25 12:53:56;;;;;;;7.38;3.05;;;46.00;18.80;;;;;;7683922;23;20015;-77
2023/08/25 12:56:57;;;;;;;5.85;3.53;;;46.40;18.60;;;;;;7710551;23;20069;-77
2023/08/25 12:59:58;;;;;;;3.78;3.15;;;47.00;18.30;;;;;;7657491;23;20009;-78
2023/08/25 13:03:00;;;;;;;3.40;3.10;;;47.50;17.80;;;;;;7709998;23;20005;-78
2023/08/25 13:06:04;;;;;;;7.22;3.60;;;48.10;17.40;;;;;;7684594;23;20020;-77
2023/08/25 13:09:05;;;;;;;7.88;3.40;;;48.50;17.00;;;;;;7703435;23;20016;-78
2023/08/25 13:12:06;;;;;;;4.07;3.35;;;48.90;16.40;;;;;;7703674;23;20004;-76
2023/08/25 13:15:08;;;;;;;6.28;3.58;;;49.30;16.00;;;;;;7722413;23;20004;-78
2023/08/25 13:18:09;;;;;;;6.03;3.92;;;49.50;15.90;;;;;;7683276;23;20023;-76
2023/08/25 13:21:11;;;;;;;6.47;3.90;;;50.00;15.60;;;;;;7682989;23;20025;-78
2023/08/25 13:24:12;;;;;;;4.30;3.53;;;50.30;15.30;;;;;;7709899;23;20091;-76
2023/08/25 13:27:12;;;;;;;4.75;3.60;;;50.60;15.10;;;;;;7682894;23;20054;-76
2023/08/25 13:30:14;;;;;;;4.15;3.10;;;50.70;15.20;;;;;;7682924;23;20417;-77
2023/08/25 13:33:15;;;;;;;6.38;3.38;;;51.10;15.40;;;;;;7657706;23;20055;-77
2023/08/25 13:36:18;;;;;;;10.75;4.05;;;51.40;15.40;;;;;;7681818;23;20008;-75
2023/08/25 13:39:18;;;;;;;9.23;3.67;;;51.40;15.50;;;;;;7682160;23;20446;-78
2023/08/25 13:42:19;;;;;;;9.90;3.78;;;51.00;15.60;;;;;;7656807;23;20084;-78
2023/08/25 13:45:21;;;;;;;10.13;3.47;;;50.60;15.50;;;;;;7708765;23;20434;-77
2023/08/25 13:48:22;;;;;;;6.22;3.30;;;50.00;15.80;;;;;;7682390;23;20040;-77
2023/08/25 13:51:23;;;;;;;6.28;3.30;;;49.50;16.10;;;;;;7682115;23;20039;-76
2023/08/25 13:54:24;;;;;;;9.68;3.30;;;49.30;16.30;;;;;;7657879;23;20020;-76
2023/08/25 13:57:25;;;;;;;8.38;3.53;;;49.10;16.90;;;;;;7682659;23;20013;-77
2023/08/25 14:00:26;;;;;;;4.68;3.05;;;49.00;16.40;;;;;;7709538;23;20090;-77
2023/08/25 14:03:27;;;;;;;7.28;3.90;;;48.80;16.50;;;;;;7682032;23;20670;-76
2023/08/25 14:06:28;;;;;;;17.77;3.50;;;48.80;16.50;;;;;;7709372;23;20065;-76
2023/08/25 14:09:29;;;;;;;6.45;3.30;;;48.90;16.50;;;;;;7709188;23;20064;-78
2023/08/25 14:12:31;;;;;;;5.80;3.10;;;48.80;16.30;;;;;;7682580;23;20043;-77
2023/08/25 14:15:32;;;;;;;8.70;3.28;;;48.60;16.30;;;;;;7709349;23;20011;-77
2023/08/25 14:18:33;;;;;;;7.00;2.83;;;48.20;16.60;;;;;;7683069;23;20013;-75
2023/08/25 14:21:34;;;;;;;5.50;2.90;;;47.20;17.10;;;;;;7709815;23;20058;-76
2023/08/25 14:24:36;;;;;;;8.05;2.90;;;45.90;17.70;;;;;;7681874;23;20588;-77
2023/08/25 14:27:36;;;;;;;4.97;2.85;;;44.60;18.60;;;;;;7681095;23;20032;-78
2023/08/25 14:30:37;;;;;;;4.22;3.25;;;43.50;19.40;;;;;;7708364;23;20075;-78
2023/08/25 14:33:38;;;;;;;9.05;2.83;;;42.50;20.20;;;;;;7709437;23;20426;-78
2023/08/25 14:36:39;;;;;;;14.07;5.15;;;41.60;20.90;;;;;;7708456;23;20015;-78
2023/08/25 14:39:40;;;;;;;3.90;2.70;;;40.90;21.60;;;;;;7680848;23;20017;-77
2023/08/25 14:42:43;;;;;;;7.22;3.28;;;40.20;22.10;;;;;;7656739;23;20186;-79
2023/08/25 14:45:45;;;;;;;6.70;3.30;;;39.80;22.70;;;;;;7681608;23;20009;-78
2023/08/25 14:48:46;;;;;;;6.75;3.03;;;39.40;23.20;;;;;;7682005;23;20023;-79
2023/08/25 14:51:47;;;;;;;4.20;3.10;;;39.10;23.60;;;;;;7710381;23;20209;-78
2023/08/25 14:54:48;;;;;;;8.18;3.10;;;38.80;23.90;;;;;;7685108;23;20066;-76
2023/08/25 14:57:50;;;;;;;3.72;2.97;;;38.50;24.20;;;;;;7684441;23;20063;-78
2023/08/25 15:00:54;;;;;;;11.05;3.40;;;38.30;24.50;;;;;;7709626;23;20076;-77
2023/08/25 15:03:55;;;;;;;3.67;2.55;;;38.10;24.70;;;;;;7658081;23;20005;-77
2023/08/25 15:06:57;;;;;;;8.98;3.40;;;38.00;25.00;;;;;;7709987;23;20008;-77
2023/08/25 15:09:58;;;;;;;5.53;3.28;;;38.00;25.10;;;;;;7682709;23;20008;-78
2023/08/25 15:12:59;;;;;;;5.95;2.92;;;37.90;25.20;;;;;;7682678;23;20338;-78
2023/08/25 15:16:00;;;;;;;7.88;2.72;;;37.90;25.30;;;;;;7683782;23;20419;-76
2023/08/25 15:19:02;;;;;;;5.00;3.10;;;37.90;25.50;;;;;;7682600;23;20075;-77
2023/08/25 15:22:03;;;;;;;5.88;3.00;;;37.90;25.70;;;;;;7709540;23;20009;-77
2023/08/25 15:25:05;;;;;;;5.65;3.20;;;37.90;25.70;;;;;;7681766;23;20012;-77
2023/08/25 15:28:06;;;;;;;5.28;3.13;;;37.90;25.90;;;;;;7682129;23;20083;-77
2023/08/25 15:31:09;;;;;;;10.15;3.17;;;37.90;26.00;;;;;;7682673;23;20428;-77
2023/08/25 15:34:10;;;;;;;3.75;3.22;;;37.80;26.10;;;;;;7682728;23;20040;-77
2023/08/25 15:37:11;;;;;;;4.70;3.15;;;37.70;26.20;;;;;;7708615;23;20076;-76
2023/08/25 15:40:12;;;;;;;6.70;3.20;;;37.70;26.40;;;;;;7708988;23;20012;-79
2023/08/25 15:43:13;;;;;;;8.00;2.63;;;37.60;26.40;;;;;;7708833;23;20055;-78
2023/08/25 15:46:15;;;;;;;8.93;3.83;;;37.50;26.50;;;;;;7682566;23;20031;-77
2023/08/25 15:49:16;;;;;;;9.88;3.55;;;37.50;26.80;;;;;;7682153;23;20031;-79